METAR for OAKB provided by aerobaticsweb.org
Current time: Monday, 25 Jan, 2021, 16:01 UTC
(This may take a minute, please be patient)


The most recent METAR observation from OAKB in our system was generated at
2021/01/25 15:50
The observation is:
2021/01/25 15:50
OAKB 251550Z 16002KT 2000 1000S FU NSC 00/M12 Q1022 RMK A3018 YLO YLO

24 Hour Summary

Time (UTC) Temperature
°C (°F)
Dew Point
°C (°F)
Pressure
Inches (hPa)
Wind
mph (km/h)
Weather
00:00 25 January -3 (26 ) -9 (15 ) 30.15 (1021) SSW 3 (5) smoke
01:00 25 January -5 (23 ) -10 (14 ) 30.15 (1021) W 2 (3) smoke
02:00 25 January -5 (23 ) -11 (12 ) 30.18 (1022) Variable 6 (10) smoke
03:00 25 January -5 (23 ) -13 (8 ) 30.18 (1022) NNW 6 (10)
04:00 25 January 1 (33 ) -10 (14 ) 30.21 (1023) NW 3 (5) smoke; haze
05:00 25 January 3 (37 ) -14 (6 ) 30.21 (1023) NNW 3 (5) haze
06:00 25 January 5 (41 ) -15 (5 ) 30.24 (1024) NW 2 (3) haze
07:00 25 January 7 (44 ) -14 (6 ) 30.21 (1023) Variable 2 (3) haze
08:00 25 January 8 (46 ) -14 (6 ) 30.18 (1022) Variable 2 (3)
09:00 25 January 10 (50 ) -15 (5 ) 30.15 (1021) Variable 2 (3)
10:00 25 January 10 (50 ) -15 (5 ) 30.12 (1020) Variable 5 (8)
11:00 25 January 10 (50 ) -16 (3 ) 30.12 (1020) Variable 2 (3)
12:00 25 January 8 (46 ) -15 (5 ) 30.12 (1020) Variable 2 (3)
13:00 25 January 6 (42 ) -15 (5 ) 30.12 (1020) Calm
14:00 25 January 5 (41 ) -13 (8 ) 30.15 (1021) SSE 2 (3) haze
15:00 25 January 2 (35 ) -12 (10 ) 30.15 (1021) Variable 3 (5) smoke
16:00 25 January 0 (32 ) -12 (10 ) 30.18 (1022) SSE 2 (3) smoke
17:00 24 January -1 (30 ) -12 (10 ) 30.18 (1022) WNW 2 (3) smoke
18:00 24 January -1 (30 ) -11 (12 ) 30.18 (1022) Variable 3 (5) smoke
19:00 24 January -1 (30 ) -9 (15 ) 30.18 (1022) ESE 2 (3) smoke
20:00 24 January -2 (28 ) -10 (14 ) 30.18 (1022) Variable 3 (5) smoke
21:00 24 January -4 (24 ) -10 (14 ) 30.18 (1022) SE 3 (5) smoke
22:00 24 January -4 (24 ) -9 (15 ) 30.18 (1022) NNW 3 (5) smoke
23:00 24 January -3 (26 ) -8 (17 ) 30.15 (1021) S 3 (5) smoke
The information presented here is taken from products produced by the U.S. National Weather Service and other national and international agencies. Landings.com does not present this as official information. Please refer to official weather briefings for flight critical information.


access provided by Dr. Guenther Eichhorn at aerobaticsweb.org